sensor_id;sensor_type;location;lat;lon;timestamp;temperature;humidity
71297;SHT31;59082;50.658;4.608;2023-02-28T06:30:20;-4.10;99.99
71297;SHT31;59082;50.658;4.608;2023-02-28T06:32:50;-4.06;99.99
71297;SHT31;59082;50.658;4.608;2023-02-28T06:35:17;-4.07;99.99
71297;SHT31;59082;50.658;4.608;2023-02-28T06:37:43;-4.18;99.99
71297;SHT31;59082;50.658;4.608;2023-02-28T06:40:09;-3.96;99.99
71297;SHT31;59082;50.658;4.608;2023-02-28T06:42:36;-4.14;99.99
71297;SHT31;59082;50.658;4.608;2023-02-28T06:45:03;-4.06;99.99
71297;SHT31;59082;50.658;4.608;2023-02-28T06:47:35;-3.99;99.99
71297;SHT31;59082;50.658;4.608;2023-02-28T06:50:02;-3.99;99.99
71297;SHT31;59082;50.658;4.608;2023-02-28T06:52:28;-3.93;99.99
71297;SHT31;59082;50.658;4.608;2023-02-28T06:54:54;-3.99;99.99
71297;SHT31;59082;50.658;4.608;2023-02-28T06:57:28;-3.90;99.99
71297;SHT31;59082;50.658;4.608;2023-02-28T06:59:58;-3.81;99.99
71297;SHT31;59082;50.658;4.608;2023-02-28T07:02:24;-3.75;99.99
71297;SHT31;59082;50.658;4.608;2023-02-28T07:04:50;-3.76;99.99
71297;SHT31;59082;50.658;4.608;2023-02-28T07:07:16;-3.59;99.99
71297;SHT31;59082;50.658;4.608;2023-02-28T07:09:43;-3.48;99.99
71297;SHT31;59082;50.658;4.608;2023-02-28T07:12:08;-3.47;99.99
71297;SHT31;59082;50.658;4.608;2023-02-28T07:14:36;-3.25;99.99
71297;SHT31;59082;50.658;4.608;2023-02-28T07:20:05;-3.20;99.99
71297;SHT31;59082;50.658;4.608;2023-02-28T07:22:32;-3.06;99.99
71297;SHT31;59082;50.658;4.608;2023-02-28T07:24:57;-2.85;99.99
71297;SHT31;59082;50.658;4.608;2023-02-28T07:27:23;-2.66;99.99
71297;SHT31;59082;50.658;4.608;2023-02-28T07:29:52;-2.30;99.99
71297;SHT31;59082;50.658;4.608;2023-02-28T07:32:19;-1.93;99.99
71297;SHT31;59082;50.658;4.608;2023-02-28T07:34:45;-1.79;99.99
71297;SHT31;59082;50.658;4.608;2023-02-28T07:37:11;-1.42;99.99
71297;SHT31;59082;50.658;4.608;2023-02-28T07:39:36;-1.04;99.87
71297;SHT31;59082;50.658;4.608;2023-02-28T07:42:05;-0.79;97.85
71297;SHT31;59082;50.658;4.608;2023-02-28T07:44:32;-0.76;97.19
71297;SHT31;59082;50.658;4.608;2023-02-28T07:46:59;-0.44;96.17
71297;SHT31;59082;50.658;4.608;2023-02-28T07:49:27;0.31;94.07
71297;SHT31;59082;50.658;4.608;2023-02-28T07:51:53;0.89;92.18
71297;SHT31;59082;50.658;4.608;2023-02-28T07:54:18;1.22;90.10
71297;SHT31;59082;50.658;4.608;2023-02-28T07:56:51;1.54;88.69
71297;SHT31;59082;50.658;4.608;2023-02-28T07:59:16;1.43;88.43
71297;SHT31;59082;50.658;4.608;2023-02-28T08:01:48;2.52;87.62
71297;SHT31;59082;50.658;4.608;2023-02-28T08:04:17;2.44;85.21
71297;SHT31;59082;50.658;4.608;2023-02-28T08:06:46;2.23;86.45
71297;SHT31;59082;50.658;4.608;2023-02-28T08:09:14;2.66;84.13
71297;SHT31;59082;50.658;4.608;2023-02-28T08:11:40;1.93;86.02
71297;SHT31;59082;50.658;4.608;2023-02-28T08:14:05;3.07;85.64
71297;SHT31;59082;50.658;4.608;2023-02-28T08:16:31;3.44;82.63
71297;SHT31;59082;50.658;4.608;2023-02-28T08:18:56;3.67;83.26
71297;SHT31;59082;50.658;4.608;2023-02-28T08:21:22;4.58;80.21
71297;SHT31;59082;50.658;4.608;2023-02-28T08:23:49;4.81;79.14
71297;SHT31;59082;50.658;4.608;2023-02-28T08:26:18;4.84;78.64
71297;SHT31;59082;50.658;4.608;2023-02-28T08:28:46;6.43;75.76
71297;SHT31;59082;50.658;4.608;2023-02-28T08:31:13;7.87;71.32
71297;SHT31;59082;50.658;4.608;2023-02-28T08:33:41;10.44;66.99
71297;SHT31;59082;50.658;4.608;2023-02-28T08:36:08;10.93;64.91
71297;SHT31;59082;50.658;4.608;2023-02-28T08:38:34;11.32;63.57
71297;SHT31;59082;50.658;4.608;2023-02-28T08:41:02;11.41;62.12
71297;SHT31;59082;50.658;4.608;2023-02-28T08:43:29;10.76;64.34
71297;SHT31;59082;50.658;4.608;2023-02-28T08:45:57;12.20;61.97
71297;SHT31;59082;50.658;4.608;2023-02-28T08:48:25;12.48;60.60
71297;SHT31;59082;50.658;4.608;2023-02-28T08:51:02;13.26;58.34
71297;SHT31;59082;50.658;4.608;2023-02-28T08:53:33;13.39;57.51
71297;SHT31;59082;50.658;4.608;2023-02-28T08:56:06;13.88;55.91
71297;SHT31;59082;50.658;4.608;2023-02-28T08:58:33;14.15;56.05
71297;SHT31;59082;50.658;4.608;2023-02-28T09:01:14;14.22;56.60
71297;SHT31;59082;50.658;4.608;2023-02-28T09:03:41;14.40;54.80
71297;SHT31;59082;50.658;4.608;2023-02-28T09:06:14;14.71;54.50
71297;SHT31;59082;50.658;4.608;2023-02-28T09:08:41;16.33;52.74
71297;SHT31;59082;50.658;4.608;2023-02-28T09:11:09;17.85;51.41
71297;SHT31;59082;50.658;4.608;2023-02-28T09:13:38;17.25;51.45
71297;SHT31;59082;50.658;4.608;2023-02-28T09:16:08;17.75;50.76
71297;SHT31;59082;50.658;4.608;2023-02-28T09:18:36;18.24;48.76
71297;SHT31;59082;50.658;4.608;2023-02-28T09:21:11;19.62;47.92
71297;SHT31;59082;50.658;4.608;2023-02-28T09:23:42;19.06;47.89
71297;SHT31;59082;50.658;4.608;2023-02-28T09:26:11;21.30;46.24
71297;SHT31;59082;50.658;4.608;2023-02-28T09:28:38;21.76;44.86
71297;SHT31;59082;50.658;4.608;2023-02-28T09:31:03;19.62;47.73
71297;SHT31;59082;50.658;4.608;2023-02-28T09:33:30;20.56;46.43
71297;SHT31;59082;50.658;4.608;2023-02-28T09:36:00;18.14;47.00
71297;SHT31;59082;50.658;4.608;2023-02-28T09:38:29;20.61;46.65
71297;SHT31;59082;50.658;4.608;2023-02-28T09:41:08;20.25;44.95
71297;SHT31;59082;50.658;4.608;2023-02-28T09:43:38;22.53;43.22
71297;SHT31;59082;50.658;4.608;2023-02-28T09:46:18;22.63;43.70
71297;SHT31;59082;50.658;4.608;2023-02-28T09:48:48;20.70;42.72
71297;SHT31;59082;50.658;4.608;2023-02-28T09:53:59;23.80;40.48
71297;SHT31;59082;50.658;4.608;2023-02-28T09:56:48;23.68;42.14
71297;SHT31;59082;50.658;4.608;2023-02-28T10:02:09;21.98;41.65
71297;SHT31;59082;50.658;4.608;2023-02-28T10:05:15;23.83;41.51
71297;SHT31;59082;50.658;4.608;2023-02-28T10:07:55;24.60;40.52
71297;SHT31;59082;50.658;4.608;2023-02-28T10:13:25;24.23;40.50
71297;SHT31;59082;50.658;4.608;2023-02-28T10:15:58;23.21;39.27
71297;SHT31;59082;50.658;4.608;2023-02-28T10:18:39;24.99;39.02
71297;SHT31;59082;50.658;4.608;2023-02-28T10:21:28;25.10;38.66
71297;SHT31;59082;50.658;4.608;2023-02-28T10:24:26;25.70;37.55
71297;SHT31;59082;50.658;4.608;2023-02-28T10:26:59;25.81;37.64
71297;SHT31;59082;50.658;4.608;2023-02-28T10:29:32;26.42;37.86
71297;SHT31;59082;50.658;4.608;2023-02-28T10:32:01;26.29;36.84
71297;SHT31;59082;50.658;4.608;2023-02-28T10:34:27;27.98;36.95
71297;SHT31;59082;50.658;4.608;2023-02-28T10:36:54;28.32;36.33
71297;SHT31;59082;50.658;4.608;2023-02-28T10:39:53;25.57;36.71
71297;SHT31;59082;50.658;4.608;2023-02-28T10:42:29;25.60;37.03
71297;SHT31;59082;50.658;4.608;2023-02-28T10:45:16;26.28;37.23
71297;SHT31;59082;50.658;4.608;2023-02-28T10:48:03;25.81;36.90
71297;SHT31;59082;50.658;4.608;2023-02-28T10:50:45;27.18;36.27
71297;SHT31;59082;50.658;4.608;2023-02-28T10:56:02;28.08;36.83
71297;SHT31;59082;50.658;4.608;2023-02-28T11:01:22;26.94;36.30
71297;SHT31;59082;50.658;4.608;2023-02-28T11:03:49;29.17;35.41
71297;SHT31;59082;50.658;4.608;2023-02-28T11:06:31;27.50;36.41
71297;SHT31;59082;50.658;4.608;2023-02-28T11:09:00;28.34;36.25
71297;SHT31;59082;50.658;4.608;2023-02-28T11:11:50;28.62;34.56
71297;SHT31;59082;50.658;4.608;2023-02-28T11:15:07;28.69;34.67
71297;SHT31;59082;50.658;4.608;2023-02-28T11:17:39;28.31;35.55
71297;SHT31;59082;50.658;4.608;2023-02-28T11:20:06;26.88;34.56
71297;SHT31;59082;50.658;4.608;2023-02-28T11:22:39;27.89;34.65
71297;SHT31;59082;50.658;4.608;2023-02-28T11:25:33;29.03;34.95
71297;SHT31;59082;50.658;4.608;2023-02-28T11:28:01;28.63;34.37
71297;SHT31;59082;50.658;4.608;2023-02-28T11:30:39;28.62;34.43
71297;SHT31;59082;50.658;4.608;2023-02-28T11:33:32;32.42;33.18
71297;SHT31;59082;50.658;4.608;2023-02-28T11:38:43;21.67;40.30
71297;SHT31;59082;50.658;4.608;2023-02-28T11:41:28;16.94;42.45
71297;SHT31;59082;50.658;4.608;2023-02-28T11:44:05;12.14;47.20
71297;SHT31;59082;50.658;4.608;2023-02-28T11:46:50;16.70;46.18
71297;SHT31;59082;50.658;4.608;2023-02-28T11:52:01;27.34;35.79
71297;SHT31;59082;50.658;4.608;2023-02-28T12:03:16;13.39;44.75
71297;SHT31;59082;50.658;4.608;2023-02-28T12:23:10;9.56;50.72
71297;SHT31;59082;50.658;4.608;2023-02-28T12:28:16;8.49;54.22
71297;SHT31;59082;50.658;4.608;2023-02-28T12:30:51;10.01;52.25
71297;SHT31;59082;50.658;4.608;2023-02-28T12:33:22;12.47;47.96
71297;SHT31;59082;50.658;4.608;2023-02-28T12:35:56;16.59;44.36
71297;SHT31;59082;50.658;4.608;2023-02-28T12:41:46;12.45;48.78
71297;SHT31;59082;50.658;4.608;2023-02-28T12:44:28;12.41;49.02
71297;SHT31;59082;50.658;4.608;2023-02-28T12:47:00;14.28;47.06
71297;SHT31;59082;50.658;4.608;2023-02-28T12:52:51;11.64;47.55
71297;SHT31;59082;50.658;4.608;2023-02-28T12:58:24;12.19;50.39
71297;SHT31;59082;50.658;4.608;2023-02-28T13:09:24;12.78;48.65
71297;SHT31;59082;50.658;4.608;2023-02-28T13:11:58;12.58;48.25
71297;SHT31;59082;50.658;4.608;2023-02-28T13:19:44;8.79;52.50
71297;SHT31;59082;50.658;4.608;2023-02-28T13:24:56;7.15;54.49
71297;SHT31;59082;50.658;4.608;2023-02-28T13:27:34;6.98;55.52
71297;SHT31;59082;50.658;4.608;2023-02-28T13:33:29;6.57;55.97
71297;SHT31;59082;50.658;4.608;2023-02-28T13:36:10;7.83;55.47
71297;SHT31;59082;50.658;4.608;2023-02-28T13:44:14;7.49;56.31
71297;SHT31;59082;50.658;4.608;2023-02-28T13:49:26;7.53;55.93
71297;SHT31;59082;50.658;4.608;2023-02-28T13:55:22;8.31;54.95
71297;SHT31;59082;50.658;4.608;2023-02-28T14:03:38;9.34;51.72
71297;SHT31;59082;50.658;4.608;2023-02-28T14:06:26;12.19;48.86
71297;SHT31;59082;50.658;4.608;2023-02-28T14:11:32;11.68;48.11
71297;SHT31;59082;50.658;4.608;2023-02-28T14:13:59;10.72;49.79
71297;SHT31;59082;50.658;4.608;2023-02-28T14:16:27;10.17;50.63
71297;SHT31;59082;50.658;4.608;2023-02-28T14:19:02;8.69;52.17
71297;SHT31;59082;50.658;4.608;2023-02-28T14:21:34;9.21;52.13
71297;SHT31;59082;50.658;4.608;2023-02-28T14:24:22;7.76;52.60
71297;SHT31;59082;50.658;4.608;2023-02-28T14:33:13;5.68;57.38
71297;SHT31;59082;50.658;4.608;2023-02-28T14:41:37;5.78;58.28
71297;SHT31;59082;50.658;4.608;2023-02-28T14:44:19;5.83;58.13
71297;SHT31;59082;50.658;4.608;2023-02-28T14:46:48;5.85;58.48
71297;SHT31;59082;50.658;4.608;2023-02-28T14:49:26;7.05;57.41
71297;SHT31;59082;50.658;4.608;2023-02-28T14:52:06;5.81;57.68
71297;SHT31;59082;50.658;4.608;2023-02-28T14:54:36;5.39;59.55
71297;SHT31;59082;50.658;4.608;2023-02-28T14:57:03;5.46;59.42
71297;SHT31;59082;50.658;4.608;2023-02-28T14:59:33;5.40;59.97
71297;SHT31;59082;50.658;4.608;2023-02-28T15:02:21;5.15;60.47
71297;SHT31;59082;50.658;4.608;2023-02-28T15:05:02;5.00;59.89
71297;SHT31;59082;50.658;4.608;2023-02-28T15:07:36;5.04;60.28
71297;SHT31;59082;50.658;4.608;2023-02-28T15:10:25;5.77;59.46
71297;SHT31;59082;50.658;4.608;2023-02-28T15:12:55;6.99;57.59
71297;SHT31;59082;50.658;4.608;2023-02-28T15:16:12;6.11;58.43
71297;SHT31;59082;50.658;4.608;2023-02-28T15:21:06;9.49;52.94
71297;SHT31;59082;50.658;4.608;2023-02-28T15:23:34;7.59;55.09
71297;SHT31;59082;50.658;4.608;2023-02-28T15:26:02;7.49;56.13
71297;SHT31;59082;50.658;4.608;2023-02-28T15:28:28;7.84;55.45
71297;SHT31;59082;50.658;4.608;2023-02-28T15:31:26;6.91;56.98
71297;SHT31;59082;50.658;4.608;2023-02-28T15:33:58;6.74;57.32
71297;SHT31;59082;50.658;4.608;2023-02-28T15:36:30;6.32;58.43
71297;SHT31;59082;50.658;4.608;2023-02-28T15:38:59;6.61;58.08
71297;SHT31;59082;50.658;4.608;2023-02-28T15:41:36;6.37;58.45
71297;SHT31;59082;50.658;4.608;2023-02-28T15:44:25;5.84;59.54
71297;SHT31;59082;50.658;4.608;2023-02-28T15:47:32;5.15;60.44
71297;SHT31;59082;50.658;4.608;2023-02-28T15:49:53;4.67;61.10
71297;SHT31;59082;50.658;4.608;2023-02-28T15:52:28;4.62;62.12
71297;SHT31;59082;50.658;4.608;2023-02-28T15:54:57;4.99;61.54
71297;SHT31;59082;50.658;4.608;2023-02-28T15:57:28;4.98;61.33
71297;SHT31;59082;50.658;4.608;2023-02-28T16:00:00;4.96;61.30
71297;SHT31;59082;50.658;4.608;2023-02-28T16:02:34;4.32;62.32
71297;SHT31;59082;50.658;4.608;2023-02-28T16:07:38;4.01;63.85
71297;SHT31;59082;50.658;4.608;2023-02-28T16:10:07;3.86;63.73
71297;SHT31;59082;50.658;4.608;2023-02-28T16:12:34;4.12;63.26
71297;SHT31;59082;50.658;4.608;2023-02-28T16:15:03;4.50;62.50
71297;SHT31;59082;50.658;4.608;2023-02-28T16:17:33;5.37;62.04
71297;SHT31;59082;50.658;4.608;2023-02-28T16:20:00;6.53;60.18
71297;SHT31;59082;50.658;4.608;2023-02-28T16:22:26;6.11;60.06
71297;SHT31;59082;50.658;4.608;2023-02-28T16:24:52;6.09;60.95
71297;SHT31;59082;50.658;4.608;2023-02-28T16:27:31;5.43;60.46
71297;SHT31;59082;50.658;4.608;2023-02-28T16:29:58;4.88;61.86
71297;SHT31;59082;50.658;4.608;2023-02-28T16:32:24;4.49;62.98
71297;SHT31;59082;50.658;4.608;2023-02-28T16:34:50;4.29;63.43
71297;SHT31;59082;50.658;4.608;2023-02-28T16:37:17;4.88;63.14
71297;SHT31;59082;50.658;4.608;2023-02-28T16:39:44;4.87;62.81
71297;SHT31;59082;50.658;4.608;2023-02-28T16:42:20;4.36;63.63
71297;SHT31;59082;50.658;4.608;2023-02-28T16:44:50;3.95;64.36
71297;SHT31;59082;50.658;4.608;2023-02-28T16:47:20;3.48;65.74
71297;SHT31;59082;50.658;4.608;2023-02-28T16:49:48;3.23;66.57
71297;SHT31;59082;50.658;4.608;2023-02-28T16:52:15;2.99;66.96
71297;SHT31;59082;50.658;4.608;2023-02-28T16:54:46;2.85;67.71
71297;SHT31;59082;50.658;4.608;2023-02-28T16:57:21;2.74;68.23
71297;SHT31;59082;50.658;4.608;2023-02-28T16:59:49;2.55;68.72
71297;SHT31;59082;50.658;4.608;2023-02-28T17:02:19;2.33;69.32
71297;SHT31;59082;50.658;4.608;2023-02-28T17:04:45;2.17;69.93
71297;SHT31;59082;50.658;4.608;2023-02-28T17:07:13;2.03;70.36
71297;SHT31;59082;50.658;4.608;2023-02-28T17:09:39;1.92;71.19
71297;SHT31;59082;50.658;4.608;2023-02-28T17:12:06;1.76;71.57
71297;SHT31;59082;50.658;4.608;2023-02-28T17:14:32;1.56;72.17
71297;SHT31;59082;50.658;4.608;2023-02-28T17:16:58;1.56;72.51
71297;SHT31;59082;50.658;4.608;2023-02-28T17:19:24;1.50;73.20
71297;SHT31;59082;50.658;4.608;2023-02-28T17:21:49;1.44;73.14
71297;SHT31;59082;50.658;4.608;2023-02-28T17:24:16;1.19;73.84
71297;SHT31;59082;50.658;4.608;2023-02-28T17:26:43;1.08;74.00
71297;SHT31;59082;50.658;4.608;2023-02-28T17:29:20;0.99;74.32
71297;SHT31;59082;50.658;4.608;2023-02-28T17:31:46;0.79;74.97
71297;SHT31;59082;50.658;4.608;2023-02-28T17:34:13;0.62;75.37
71297;SHT31;59082;50.658;4.608;2023-02-28T17:36:44;0.66;75.51
71297;SHT31;59082;50.658;4.608;2023-02-28T17:39:11;0.55;75.83
71297;SHT31;59082;50.658;4.608;2023-02-28T17:41:41;0.41;76.55
71297;SHT31;59082;50.658;4.608;2023-02-28T17:44:07;0.22;77.15
71297;SHT31;59082;50.658;4.608;2023-02-28T17:46:33;0.42;77.22
71297;SHT31;59082;50.658;4.608;2023-02-28T17:48:59;0.42;77.51
71297;SHT31;59082;50.658;4.608;2023-02-28T17:51:25;0.22;77.74
71297;SHT31;59082;50.658;4.608;2023-02-28T17:53:52;0.20;77.88
71297;SHT31;59082;50.658;4.608;2023-02-28T17:56:27;0.06;78.17
71297;SHT31;59082;50.658;4.608;2023-02-28T17:58:54;0.01;78.89
71297;SHT31;59082;50.658;4.608;2023-02-28T18:01:21;0.00;79.06
71297;SHT31;59082;50.658;4.608;2023-02-28T18:03:47;-0.06;79.04
71297;SHT31;59082;50.658;4.608;2023-02-28T18:06:19;-0.13;79.57
71297;SHT31;59082;50.658;4.608;2023-02-28T18:08:47;-0.17;79.37
71297;SHT31;59082;50.658;4.608;2023-02-28T18:11:13;-0.03;79.20
71297;SHT31;59082;50.658;4.608;2023-02-28T18:13:50;-0.13;79.64
71297;SHT31;59082;50.658;4.608;2023-02-28T18:16:18;-0.01;79.88
71297;SHT31;59082;50.658;4.608;2023-02-28T18:18:44;-0.11;80.00
71297;SHT31;59082;50.658;4.608;2023-02-28T18:21:12;-0.29;79.90
71297;SHT31;59082;50.658;4.608;2023-02-28T18:23:40;-0.37;80.21
71297;SHT31;59082;50.658;4.608;2023-02-28T18:26:17;-0.31;80.52
71297;SHT31;59082;50.658;4.608;2023-02-28T18:28:44;-0.41;80.55
71297;SHT31;59082;50.658;4.608;2023-02-28T18:31:12;-0.38;80.58
71297;SHT31;59082;50.658;4.608;2023-02-28T18:33:39;-0.48;81.00
71297;SHT31;59082;50.658;4.608;2023-02-28T18:36:05;-0.37;80.78
71297;SHT31;59082;50.658;4.608;2023-02-28T18:38:31;-0.38;80.82
71297;SHT31;59082;50.658;4.608;2023-02-28T18:40:59;-0.21;79.93
71297;SHT31;59082;50.658;4.608;2023-02-28T18:43:30;-0.35;80.33
71297;SHT31;59082;50.658;4.608;2023-02-28T18:45:55;-0.03;79.77
71297;SHT31;59082;50.658;4.608;2023-02-28T18:48:21;-0.13;79.80
71297;SHT31;59082;50.658;4.608;2023-02-28T18:50:50;-0.22;80.06
71297;SHT31;59082;50.658;4.608;2023-02-28T18:53:17;-0.31;80.38
71297;SHT31;59082;50.658;4.608;2023-02-28T18:55:46;-0.31;80.11
71297;SHT31;59082;50.658;4.608;2023-02-28T18:58:11;-0.54;80.40
71297;SHT31;59082;50.658;4.608;2023-02-28T19:00:38;-0.44;80.60
71297;SHT31;59082;50.658;4.608;2023-02-28T19:03:04;-0.41;80.63
71297;SHT31;59082;50.658;4.608;2023-02-28T19:05:29;-0.41;80.33
71297;SHT31;59082;50.658;4.608;2023-02-28T19:08:00;-0.54;80.73
71297;SHT31;59082;50.658;4.608;2023-02-28T19:10:26;-0.51;80.51
71297;SHT31;59082;50.658;4.608;2023-02-28T19:12:52;-0.54;80.45
71297;SHT31;59082;50.658;4.608;2023-02-28T19:15:17;-0.69;81.14
71297;SHT31;59082;50.658;4.608;2023-02-28T19:17:43;-0.73;81.55
71297;SHT31;59082;50.658;4.608;2023-02-28T19:20:11;-0.72;81.61
71297;SHT31;59082;50.658;4.608;2023-02-28T19:22:37;-0.70;81.47
71297;SHT31;59082;50.658;4.608;2023-02-28T19:25:04;-0.76;81.52
71297;SHT31;59082;50.658;4.608;2023-02-28T19:27:30;-0.92;81.49
71297;SHT31;59082;50.658;4.608;2023-02-28T19:29:55;-0.87;82.02
71297;SHT31;59082;50.658;4.608;2023-02-28T19:32:24;-0.96;82.01
71297;SHT31;59082;50.658;4.608;2023-02-28T19:34:50;-0.89;82.12
71297;SHT31;59082;50.658;4.608;2023-02-28T19:37:16;-1.05;82.40
71297;SHT31;59082;50.658;4.608;2023-02-28T19:39:44;-1.05;82.35
71297;SHT31;59082;50.658;4.608;2023-02-28T19:42:13;-0.96;82.42
71297;SHT31;59082;50.658;4.608;2023-02-28T19:44:40;-0.75;81.78
71297;SHT31;59082;50.658;4.608;2023-02-28T19:47:06;-0.89;81.85
71297;SHT31;59082;50.658;4.608;2023-02-28T19:49:33;-0.99;82.24
71297;SHT31;59082;50.658;4.608;2023-02-28T19:51:59;-0.99;82.36
71297;SHT31;59082;50.658;4.608;2023-02-28T19:54:26;-1.01;82.30
71297;SHT31;59082;50.658;4.608;2023-02-28T19:56:52;-1.14;82.55
71297;SHT31;59082;50.658;4.608;2023-02-28T19:59:23;-0.97;82.39
71297;SHT31;59082;50.658;4.608;2023-02-28T20:01:49;-0.87;81.99
71297;SHT31;59082;50.658;4.608;2023-02-28T20:04:19;-0.86;82.15
71297;SHT31;59082;50.658;4.608;2023-02-28T20:06:44;-0.83;81.98
71297;SHT31;59082;50.658;4.608;2023-02-28T20:09:10;-1.01;82.24
71297;SHT31;59082;50.658;4.608;2023-02-28T20:11:35;-0.77;82.25
71297;SHT31;59082;50.658;4.608;2023-02-28T20:14:01;-0.87;81.93
71297;SHT31;59082;50.658;4.608;2023-02-28T20:16:30;-0.75;82.20
71297;SHT31;59082;50.658;4.608;2023-02-28T20:18:56;-1.01;82.33
71297;SHT31;59082;50.658;4.608;2023-02-28T20:21:21;-0.92;82.47
71297;SHT31;59082;50.658;4.608;2023-02-28T20:23:47;-0.96;82.46
71297;SHT31;59082;50.658;4.608;2023-02-28T20:26:15;-0.80;82.20
71297;SHT31;59082;50.658;4.608;2023-02-28T20:28:45;-0.80;82.60
71297;SHT31;59082;50.658;4.608;2023-02-28T20:31:17;-0.92;82.74
71297;SHT31;59082;50.658;4.608;2023-02-28T20:33:43;-0.89;82.37
71297;SHT31;59082;50.658;4.608;2023-02-28T20:36:09;-0.87;82.75
71297;SHT31;59082;50.658;4.608;2023-02-28T20:38:37;-0.87;82.71
71297;SHT31;59082;50.658;4.608;2023-02-28T20:41:03;-1.03;83.11
71297;SHT31;59082;50.658;4.608;2023-02-28T20:43:29;-1.04;83.19
71297;SHT31;59082;50.658;4.608;2023-02-28T20:45:57;-1.20;83.56
71297;SHT31;59082;50.658;4.608;2023-02-28T20:48:24;-1.10;83.95
71297;SHT31;59082;50.658;4.608;2023-02-28T20:50:56;-1.03;83.86
71297;SHT31;59082;50.658;4.608;2023-02-28T20:53:23;-1.07;84.27
71297;SHT31;59082;50.658;4.608;2023-02-28T20:56:05;-1.18;84.55
71297;SHT31;59082;50.658;4.608;2023-02-28T20:58:33;-1.17;84.42
71297;SHT31;59082;50.658;4.608;2023-02-28T21:01:08;-1.32;84.78
71297;SHT31;59082;50.658;4.608;2023-02-28T21:03:47;-1.18;84.76
71297;SHT31;59082;50.658;4.608;2023-02-28T21:06:14;-1.20;84.83
71297;SHT31;59082;50.658;4.608;2023-02-28T21:08:41;-1.11;85.02
71297;SHT31;59082;50.658;4.608;2023-02-28T21:11:11;-1.25;85.20
71297;SHT31;59082;50.658;4.608;2023-02-28T21:13:38;-1.23;85.36
71297;SHT31;59082;50.658;4.608;2023-02-28T21:16:06;-1.40;85.73
71297;SHT31;59082;50.658;4.608;2023-02-28T21:18:33;-1.42;86.21
71297;SHT31;59082;50.658;4.608;2023-02-28T21:21:01;-1.44;86.14
71297;SHT31;59082;50.658;4.608;2023-02-28T21:23:27;-1.37;86.03
71297;SHT31;59082;50.658;4.608;2023-02-28T21:25:53;-1.18;85.83
71297;SHT31;59082;50.658;4.608;2023-02-28T21:28:18;-1.17;85.63
71297;SHT31;59082;50.658;4.608;2023-02-28T21:30:44;-1.18;85.83
71297;SHT31;59082;50.658;4.608;2023-02-28T21:33:09;-1.27;86.46
71297;SHT31;59082;50.658;4.608;2023-02-28T21:35:35;-1.28;86.73
71297;SHT31;59082;50.658;4.608;2023-02-28T21:38:00;-1.40;87.16
71297;SHT31;59082;50.658;4.608;2023-02-28T21:40:26;-1.37;87.55
71297;SHT31;59082;50.658;4.608;2023-02-28T21:42:51;-1.14;87.60
71297;SHT31;59082;50.658;4.608;2023-02-28T21:45:17;-1.40;87.52
71297;SHT31;59082;50.658;4.608;2023-02-28T21:47:42;-1.52;87.81
71297;SHT31;59082;50.658;4.608;2023-02-28T21:50:08;-1.52;87.59
71297;SHT31;59082;50.658;4.608;2023-02-28T21:52:34;-1.68;88.18
71297;SHT31;59082;50.658;4.608;2023-02-28T21:55:00;-1.75;88.83
71297;SHT31;59082;50.658;4.608;2023-02-28T21:57:25;-1.59;88.76
71297;SHT31;59082;50.658;4.608;2023-02-28T21:59:51;-1.54;88.45
71297;SHT31;59082;50.658;4.608;2023-02-28T22:02:16;-1.63;88.85
71297;SHT31;59082;50.658;4.608;2023-02-28T22:04:42;-1.61;88.86
71297;SHT31;59082;50.658;4.608;2023-02-28T22:07:08;-1.72;88.86
71297;SHT31;59082;50.658;4.608;2023-02-28T22:09:33;-1.65;88.75
71297;SHT31;59082;50.658;4.608;2023-02-28T22:12:00;-1.68;89.06
71297;SHT31;59082;50.658;4.608;2023-02-28T22:14:25;-1.86;89.58
71297;SHT31;59082;50.658;4.608;2023-02-28T22:16:51;-1.96;90.01
71297;SHT31;59082;50.658;4.608;2023-02-28T22:19:17;-1.93;90.19
71297;SHT31;59082;50.658;4.608;2023-02-28T22:21:43;-1.85;90.33
71297;SHT31;59082;50.658;4.608;2023-02-28T22:24:11;-1.83;90.69
71297;SHT31;59082;50.658;4.608;2023-02-28T22:26:36;-1.93;90.64
71297;SHT31;59082;50.658;4.608;2023-02-28T22:29:03;-1.85;90.53
71297;SHT31;59082;50.658;4.608;2023-02-28T22:31:32;-1.89;90.86
71297;SHT31;59082;50.658;4.608;2023-02-28T22:34:05;-1.92;90.50
71297;SHT31;59082;50.658;4.608;2023-02-28T22:36:31;-2.09;91.11
71297;SHT31;59082;50.658;4.608;2023-02-28T22:38:57;-2.09;91.23
71297;SHT31;59082;50.658;4.608;2023-02-28T22:41:25;-1.93;91.08
71297;SHT31;59082;50.658;4.608;2023-02-28T22:43:53;-1.99;91.17
71297;SHT31;59082;50.658;4.608;2023-02-28T22:46:20;-1.73;90.66
71297;SHT31;59082;50.658;4.608;2023-02-28T22:48:46;-1.75;90.56
71297;SHT31;59082;50.658;4.608;2023-02-28T22:51:19;-1.73;90.25
71297;SHT31;59082;50.658;4.608;2023-02-28T22:53:46;-1.72;90.51
71297;SHT31;59082;50.658;4.608;2023-02-28T22:56:14;-1.76;90.42
71297;SHT31;59082;50.658;4.608;2023-02-28T22:58:40;-1.92;91.08
71297;SHT31;59082;50.658;4.608;2023-02-28T23:01:13;-1.96;91.38
71297;SHT31;59082;50.658;4.608;2023-02-28T23:03:40;-1.93;91.18
71297;SHT31;59082;50.658;4.608;2023-02-28T23:08:44;-2.11;91.67
71297;SHT31;59082;50.658;4.608;2023-02-28T23:11:16;-2.21;92.02
71297;SHT31;59082;50.658;4.608;2023-02-28T23:13:42;-2.27;92.49
71297;SHT31;59082;50.658;4.608;2023-02-28T23:16:07;-2.17;92.23
71297;SHT31;59082;50.658;4.608;2023-02-28T23:18:33;-2.11;92.29
71297;SHT31;59082;50.658;4.608;2023-02-28T23:20:59;-2.15;92.22
71297;SHT31;59082;50.658;4.608;2023-02-28T23:23:25;-2.03;92.04
71297;SHT31;59082;50.658;4.608;2023-02-28T23:25:51;-2.13;92.00
71297;SHT31;59082;50.658;4.608;2023-02-28T23:28:17;-2.17;91.78
71297;SHT31;59082;50.658;4.608;2023-02-28T23:30:42;-2.01;91.75
71297;SHT31;59082;50.658;4.608;2023-02-28T23:33:08;-2.15;91.55
71297;SHT31;59082;50.658;4.608;2023-02-28T23:35:33;-2.07;91.41
71297;SHT31;59082;50.658;4.608;2023-02-28T23:37:59;-2.10;91.65
71297;SHT31;59082;50.658;4.608;2023-02-28T23:40:25;-1.90;91.09
71297;SHT31;59082;50.658;4.608;2023-02-28T23:42:51;-1.92;91.05
71297;SHT31;59082;50.658;4.608;2023-02-28T23:45:17;-2.03;91.07
71297;SHT31;59082;50.658;4.608;2023-02-28T23:47:43;-2.04;91.43
71297;SHT31;59082;50.658;4.608;2023-02-28T23:50:09;-1.90;91.38
71297;SHT31;59082;50.658;4.608;2023-02-28T23:52:35;-1.96;91.57
71297;SHT31;59082;50.658;4.608;2023-02-28T23:55:00;-1.86;91.74
71297;SHT31;59082;50.658;4.608;2023-02-28T23:57:27;-1.90;91.58
71297;SHT31;59082;50.658;4.608;2023-02-28T23:59:54;-2.17;91.86
